KTEX/TEX METAR and TAF weather

Enter ICAO airport designator
Station Type Date Time Source
KTEX METAR 2019/02/22 22:35 UTC NOAA

KTEX 222235Z AUTO 00000KT 7SM -SN BKN015 OVC021 M03/M07 A2966 RMK AO2


Station Type Date Time Source
KTEX Decoded METAR 2019/02/22 22:35 UTC NOAA

Telluride, Telluride Regional Airport, CO, United States (KTEX) 37-57-14N 107-54-31W
Feb 22, 2019 - 05:35 PM EST / 2019.02.22 2235 UTC
Wind: Calm:0
Visibility: 7 mile(s):0
Sky conditions: overcast
Weather: light snow
Temperature: 26 F (-3 C)
Dew Point: 19 F (-7 C)
Relative Humidity: 73%
Pressure (altimeter): 29.66 in. Hg (1004 hPa)
ob: KTEX 222235Z AUTO 00000KT 7SM -SN BKN015 OVC021 M03/M07 A2966 RMK AO2
cycle: 22

Station Type Date Time Source
KTEX TAF 2019/02/22 20:48 UTC NOAA

TAF
AMD KTEX 221946Z 2220/2318 00000KT 2SM -SN BKN005 OVC015
TEMPO 2220/2222 1SM -SN BKN008 BKN015
FM230000 18008KT P6SM VCSH SCT015 OVC025
FM230300 29005KT 2SM -SN BKN009 OVC015
FM230900 30006KT P6SM SCT015 OVC030
FM231300 36005KT P6SM SCT060


Example: see airport list